sensor_id;sensor_type;location;lat;lon;timestamp;temperature;humidity
32215;DHT22;18708;53.124;23.190;2023-03-01T00:01:22;0.70;1.00
32215;DHT22;18708;53.124;23.190;2023-03-01T00:03:49;0.70;1.00
32215;DHT22;18708;53.124;23.190;2023-03-01T00:06:16;0.70;1.00
32215;DHT22;18708;53.124;23.190;2023-03-01T00:08:41;0.70;1.00
32215;DHT22;18708;53.124;23.190;2023-03-01T00:11:14;0.70;1.00
32215;DHT22;18708;53.124;23.190;2023-03-01T00:13:40;0.70;1.00
32215;DHT22;18708;53.124;23.190;2023-03-01T00:16:09;0.70;1.00
32215;DHT22;18708;53.124;23.190;2023-03-01T00:18:34;0.70;1.00
32215;DHT22;18708;53.124;23.190;2023-03-01T00:21:00;0.70;1.00
32215;DHT22;18708;53.124;23.190;2023-03-01T00:23:26;0.70;1.00
32215;DHT22;18708;53.124;23.190;2023-03-01T00:25:52;0.70;1.00
32215;DHT22;18708;53.124;23.190;2023-03-01T00:28:19;0.80;1.00
32215;DHT22;18708;53.124;23.190;2023-03-01T00:30:45;0.80;1.00
32215;DHT22;18708;53.124;23.190;2023-03-01T00:33:10;0.80;1.00
32215;DHT22;18708;53.124;23.190;2023-03-01T00:35:37;0.70;1.00
32215;DHT22;18708;53.124;23.190;2023-03-01T00:38:03;0.80;1.00
32215;DHT22;18708;53.124;23.190;2023-03-01T00:40:31;0.80;1.00
32215;DHT22;18708;53.124;23.190;2023-03-01T00:42:57;0.80;1.00
32215;DHT22;18708;53.124;23.190;2023-03-01T00:45:23;0.80;1.00
32215;DHT22;18708;53.124;23.190;2023-03-01T00:47:50;0.80;1.00
32215;DHT22;18708;53.124;23.190;2023-03-01T00:50:16;0.90;1.00
32215;DHT22;18708;53.124;23.190;2023-03-01T00:52:42;0.80;1.00
32215;DHT22;18708;53.124;23.190;2023-03-01T00:55:08;0.80;1.00
32215;DHT22;18708;53.124;23.190;2023-03-01T00:57:34;0.80;1.00
32215;DHT22;18708;53.124;23.190;2023-03-01T00:59:59;0.80;1.00
32215;DHT22;18708;53.124;23.190;2023-03-01T01:02:25;0.80;1.00
32215;DHT22;18708;53.124;23.190;2023-03-01T01:04:51;0.80;1.00
32215;DHT22;18708;53.124;23.190;2023-03-01T01:07:17;0.80;1.00
32215;DHT22;18708;53.124;23.190;2023-03-01T01:09:46;0.90;1.00
32215;DHT22;18708;53.124;23.190;2023-03-01T01:12:12;0.80;1.00
32215;DHT22;18708;53.124;23.190;2023-03-01T01:14:38;0.80;1.00
32215;DHT22;18708;53.124;23.190;2023-03-01T01:17:04;0.90;1.00
32215;DHT22;18708;53.124;23.190;2023-03-01T01:19:30;0.90;1.00
32215;DHT22;18708;53.124;23.190;2023-03-01T01:21:55;0.90;1.00
32215;DHT22;18708;53.124;23.190;2023-03-01T01:24:21;0.90;1.00
32215;DHT22;18708;53.124;23.190;2023-03-01T01:26:47;0.90;1.00
32215;DHT22;18708;53.124;23.190;2023-03-01T01:29:13;0.80;1.00
32215;DHT22;18708;53.124;23.190;2023-03-01T01:31:40;0.70;1.00
32215;DHT22;18708;53.124;23.190;2023-03-01T01:34:07;0.80;1.00
32215;DHT22;18708;53.124;23.190;2023-03-01T01:36:34;0.80;1.00
32215;DHT22;18708;53.124;23.190;2023-03-01T01:39:00;0.80;1.00
32215;DHT22;18708;53.124;23.190;2023-03-01T01:41:27;0.80;29.40
32215;DHT22;18708;53.124;23.190;2023-03-01T01:44:16;0.80;90.90
32215;DHT22;18708;53.124;23.190;2023-03-01T01:47:15;0.80;99.90
32215;DHT22;18708;53.124;23.190;2023-03-01T01:49:38;0.80;99.90
32215;DHT22;18708;53.124;23.190;2023-03-01T01:52:11;0.70;99.90
32215;DHT22;18708;53.124;23.190;2023-03-01T01:55:07;0.80;99.90
32215;DHT22;18708;53.124;23.190;2023-03-01T01:57:39;0.80;99.90
32215;DHT22;18708;53.124;23.190;2023-03-01T02:00:18;0.80;1.00
32215;DHT22;18708;53.124;23.190;2023-03-01T02:02:46;0.80;1.00
32215;DHT22;18708;53.124;23.190;2023-03-01T02:08:04;0.70;1.00
32215;DHT22;18708;53.124;23.190;2023-03-01T02:10:32;0.70;1.00
32215;DHT22;18708;53.124;23.190;2023-03-01T02:13:01;0.80;1.00
32215;DHT22;18708;53.124;23.190;2023-03-01T02:15:33;0.80;1.00
32215;DHT22;18708;53.124;23.190;2023-03-01T02:17:59;0.80;1.00
32215;DHT22;18708;53.124;23.190;2023-03-01T02:23:19;0.80;1.00
32215;DHT22;18708;53.124;23.190;2023-03-01T02:28:45;0.80;1.00
32215;DHT22;18708;53.124;23.190;2023-03-01T02:31:15;0.90;1.00
32215;DHT22;18708;53.124;23.190;2023-03-01T02:34:01;0.90;1.00
32215;DHT22;18708;53.124;23.190;2023-03-01T02:36:36;0.90;1.00
32215;DHT22;18708;53.124;23.190;2023-03-01T02:39:04;0.90;1.00
32215;DHT22;18708;53.124;23.190;2023-03-01T02:41:35;0.90;1.00
32215;DHT22;18708;53.124;23.190;2023-03-01T02:44:03;0.80;1.00
32215;DHT22;18708;53.124;23.190;2023-03-01T02:46:29;0.80;91.40
32215;DHT22;18708;53.124;23.190;2023-03-01T02:48:56;0.80;99.90
32215;DHT22;18708;53.124;23.190;2023-03-01T02:51:43;0.80;99.90
32215;DHT22;18708;53.124;23.190;2023-03-01T02:54:31;0.90;99.90
32215;DHT22;18708;53.124;23.190;2023-03-01T02:56:59;0.90;99.90
32215;DHT22;18708;53.124;23.190;2023-03-01T02:59:29;0.80;99.90
32215;DHT22;18708;53.124;23.190;2023-03-01T03:01:55;0.80;99.90
32215;DHT22;18708;53.124;23.190;2023-03-01T03:04:21;0.80;99.90
32215;DHT22;18708;53.124;23.190;2023-03-01T03:06:49;0.90;99.90
32215;DHT22;18708;53.124;23.190;2023-03-01T03:09:15;0.90;99.90
32215;DHT22;18708;53.124;23.190;2023-03-01T03:11:42;0.90;99.90
32215;DHT22;18708;53.124;23.190;2023-03-01T03:14:12;1.00;99.90
32215;DHT22;18708;53.124;23.190;2023-03-01T03:16:43;1.00;99.90
32215;DHT22;18708;53.124;23.190;2023-03-01T03:19:10;1.00;99.90
32215;DHT22;18708;53.124;23.190;2023-03-01T03:21:36;1.00;99.90
32215;DHT22;18708;53.124;23.190;2023-03-01T03:24:02;1.00;99.90
32215;DHT22;18708;53.124;23.190;2023-03-01T03:26:28;1.00;99.90
32215;DHT22;18708;53.124;23.190;2023-03-01T03:28:54;1.10;1.00
32215;DHT22;18708;53.124;23.190;2023-03-01T03:31:20;1.00;99.90
32215;DHT22;18708;53.124;23.190;2023-03-01T03:33:45;1.00;99.90
32215;DHT22;18708;53.124;23.190;2023-03-01T03:36:19;1.00;99.90
32215;DHT22;18708;53.124;23.190;2023-03-01T03:38:45;1.00;1.00
32215;DHT22;18708;53.124;23.190;2023-03-01T03:41:12;1.00;1.00
32215;DHT22;18708;53.124;23.190;2023-03-01T03:43:39;1.00;1.00
32215;DHT22;18708;53.124;23.190;2023-03-01T03:46:06;1.10;1.00
32215;DHT22;18708;53.124;23.190;2023-03-01T03:48:37;1.10;1.00
32215;DHT22;18708;53.124;23.190;2023-03-01T03:51:03;1.10;1.00
32215;DHT22;18708;53.124;23.190;2023-03-01T03:53:31;1.10;1.00
32215;DHT22;18708;53.124;23.190;2023-03-01T03:55:58;0.90;1.00
32215;DHT22;18708;53.124;23.190;2023-03-01T03:58:25;1.00;1.00
32215;DHT22;18708;53.124;23.190;2023-03-01T04:00:54;1.00;1.00
32215;DHT22;18708;53.124;23.190;2023-03-01T04:03:22;1.00;1.00
32215;DHT22;18708;53.124;23.190;2023-03-01T04:05:48;0.90;1.00
32215;DHT22;18708;53.124;23.190;2023-03-01T04:08:16;1.00;1.00
32215;DHT22;18708;53.124;23.190;2023-03-01T04:10:47;1.00;1.00
32215;DHT22;18708;53.124;23.190;2023-03-01T04:13:18;1.00;1.00
32215;DHT22;18708;53.124;23.190;2023-03-01T04:15:54;1.00;1.00
32215;DHT22;18708;53.124;23.190;2023-03-01T04:18:21;0.90;1.00
32215;DHT22;18708;53.124;23.190;2023-03-01T04:20:47;0.90;1.00
32215;DHT22;18708;53.124;23.190;2023-03-01T04:23:18;0.90;1.00
32215;DHT22;18708;53.124;23.190;2023-03-01T04:25:47;0.90;1.00
32215;DHT22;18708;53.124;23.190;2023-03-01T04:28:29;1.00;1.00
32215;DHT22;18708;53.124;23.190;2023-03-01T04:30:57;1.00;1.00
32215;DHT22;18708;53.124;23.190;2023-03-01T04:33:24;1.00;1.00
32215;DHT22;18708;53.124;23.190;2023-03-01T04:35:50;1.00;1.00
32215;DHT22;18708;53.124;23.190;2023-03-01T04:38:17;1.00;1.00
32215;DHT22;18708;53.124;23.190;2023-03-01T04:40:43;1.00;1.00
32215;DHT22;18708;53.124;23.190;2023-03-01T04:43:09;1.00;1.00
32215;DHT22;18708;53.124;23.190;2023-03-01T04:45:35;1.00;1.00
32215;DHT22;18708;53.124;23.190;2023-03-01T04:48:02;0.90;1.00
32215;DHT22;18708;53.124;23.190;2023-03-01T04:50:28;0.90;1.00
32215;DHT22;18708;53.124;23.190;2023-03-01T04:52:54;0.90;1.00
32215;DHT22;18708;53.124;23.190;2023-03-01T04:55:24;0.90;1.00
32215;DHT22;18708;53.124;23.190;2023-03-01T04:57:51;1.00;1.00
32215;DHT22;18708;53.124;23.190;2023-03-01T05:00:17;1.00;1.00
32215;DHT22;18708;53.124;23.190;2023-03-01T05:02:54;0.90;1.00
32215;DHT22;18708;53.124;23.190;2023-03-01T05:05:34;1.00;1.00
32215;DHT22;18708;53.124;23.190;2023-03-01T05:08:02;1.00;1.00
32215;DHT22;18708;53.124;23.190;2023-03-01T05:10:30;1.00;1.00
32215;DHT22;18708;53.124;23.190;2023-03-01T05:12:57;1.00;1.00
32215;DHT22;18708;53.124;23.190;2023-03-01T05:15:27;1.10;1.00
32215;DHT22;18708;53.124;23.190;2023-03-01T05:17:54;1.00;1.00
32215;DHT22;18708;53.124;23.190;2023-03-01T05:20:20;1.00;1.00
32215;DHT22;18708;53.124;23.190;2023-03-01T05:22:49;1.00;1.00
32215;DHT22;18708;53.124;23.190;2023-03-01T05:25:14;1.00;1.00
32215;DHT22;18708;53.124;23.190;2023-03-01T05:27:40;0.90;1.00
32215;DHT22;18708;53.124;23.190;2023-03-01T05:30:07;0.90;1.00
32215;DHT22;18708;53.124;23.190;2023-03-01T05:32:47;1.00;1.00
32215;DHT22;18708;53.124;23.190;2023-03-01T05:35:15;1.00;22.40
32215;DHT22;18708;53.124;23.190;2023-03-01T05:37:47;1.10;40.40
32215;DHT22;18708;53.124;23.190;2023-03-01T05:40:18;1.10;30.00
32215;DHT22;18708;53.124;23.190;2023-03-01T05:42:45;1.10;1.00
32215;DHT22;18708;53.124;23.190;2023-03-01T05:45:12;1.10;34.50
32215;DHT22;18708;53.124;23.190;2023-03-01T05:47:42;1.10;1.00
32215;DHT22;18708;53.124;23.190;2023-03-01T05:50:29;1.10;99.90
32215;DHT22;18708;53.124;23.190;2023-03-01T05:53:00;1.20;99.90
32215;DHT22;18708;53.124;23.190;2023-03-01T05:55:28;1.10;68.50
32215;DHT22;18708;53.124;23.190;2023-03-01T05:57:54;1.20;99.90
32215;DHT22;18708;53.124;23.190;2023-03-01T06:00:20;1.20;99.90
32215;DHT22;18708;53.124;23.190;2023-03-01T06:02:48;1.20;99.90
32215;DHT22;18708;53.124;23.190;2023-03-01T06:05:14;1.30;99.90
32215;DHT22;18708;53.124;23.190;2023-03-01T06:07:40;1.30;99.90
32215;DHT22;18708;53.124;23.190;2023-03-01T06:10:08;1.20;99.90
32215;DHT22;18708;53.124;23.190;2023-03-01T06:12:35;1.20;99.90
32215;DHT22;18708;53.124;23.190;2023-03-01T06:15:01;1.20;99.90
32215;DHT22;18708;53.124;23.190;2023-03-01T06:17:33;1.20;99.90
32215;DHT22;18708;53.124;23.190;2023-03-01T06:20:07;1.20;99.90
32215;DHT22;18708;53.124;23.190;2023-03-01T06:22:33;1.20;1.00
32215;DHT22;18708;53.124;23.190;2023-03-01T06:24:59;1.20;1.00
32215;DHT22;18708;53.124;23.190;2023-03-01T06:27:24;1.20;1.00
32215;DHT22;18708;53.124;23.190;2023-03-01T06:29:50;1.20;1.00
32215;DHT22;18708;53.124;23.190;2023-03-01T06:32:16;1.20;1.00
32215;DHT22;18708;53.124;23.190;2023-03-01T06:34:42;1.20;1.00
32215;DHT22;18708;53.124;23.190;2023-03-01T06:37:07;1.10;1.00
32215;DHT22;18708;53.124;23.190;2023-03-01T06:39:33;1.10;1.00
32215;DHT22;18708;53.124;23.190;2023-03-01T06:41:59;1.10;1.00
32215;DHT22;18708;53.124;23.190;2023-03-01T06:44:25;1.20;1.00
32215;DHT22;18708;53.124;23.190;2023-03-01T06:46:51;1.30;1.00
32215;DHT22;18708;53.124;23.190;2023-03-01T06:49:16;1.30;1.00
32215;DHT22;18708;53.124;23.190;2023-03-01T06:51:44;1.30;1.00
32215;DHT22;18708;53.124;23.190;2023-03-01T06:54:10;1.40;1.00
32215;DHT22;18708;53.124;23.190;2023-03-01T06:56:36;1.40;1.00
32215;DHT22;18708;53.124;23.190;2023-03-01T06:59:02;1.50;1.00
32215;DHT22;18708;53.124;23.190;2023-03-01T07:01:29;1.40;1.00
32215;DHT22;18708;53.124;23.190;2023-03-01T07:03:55;1.40;1.00
32215;DHT22;18708;53.124;23.190;2023-03-01T07:06:21;1.50;1.00
32215;DHT22;18708;53.124;23.190;2023-03-01T07:08:47;1.50;1.00
32215;DHT22;18708;53.124;23.190;2023-03-01T07:11:13;1.50;1.00
32215;DHT22;18708;53.124;23.190;2023-03-01T07:13:39;1.50;1.00
32215;DHT22;18708;53.124;23.190;2023-03-01T07:16:06;1.60;1.00
32215;DHT22;18708;53.124;23.190;2023-03-01T07:18:32;1.60;1.00
32215;DHT22;18708;53.124;23.190;2023-03-01T07:20:57;1.60;1.00
32215;DHT22;18708;53.124;23.190;2023-03-01T07:23:23;1.70;1.00
32215;DHT22;18708;53.124;23.190;2023-03-01T07:25:53;1.70;1.00
32215;DHT22;18708;53.124;23.190;2023-03-01T07:28:19;1.70;1.00
32215;DHT22;18708;53.124;23.190;2023-03-01T07:30:45;1.70;1.00
32215;DHT22;18708;53.124;23.190;2023-03-01T07:33:11;1.70;1.00
32215;DHT22;18708;53.124;23.190;2023-03-01T07:35:36;1.60;1.00
32215;DHT22;18708;53.124;23.190;2023-03-01T07:38:02;1.60;1.00
32215;DHT22;18708;53.124;23.190;2023-03-01T07:40:28;1.60;1.00
32215;DHT22;18708;53.124;23.190;2023-03-01T07:42:57;1.60;1.00
32215;DHT22;18708;53.124;23.190;2023-03-01T07:45:24;1.60;1.00
32215;DHT22;18708;53.124;23.190;2023-03-01T07:47:51;1.60;1.00
32215;DHT22;18708;53.124;23.190;2023-03-01T07:50:17;1.60;1.00
32215;DHT22;18708;53.124;23.190;2023-03-01T07:52:45;1.80;1.00
32215;DHT22;18708;53.124;23.190;2023-03-01T07:55:11;1.80;1.00
32215;DHT22;18708;53.124;23.190;2023-03-01T07:57:37;1.80;1.00
32215;DHT22;18708;53.124;23.190;2023-03-01T08:00:03;1.80;1.00
32215;DHT22;18708;53.124;23.190;2023-03-01T08:02:29;1.80;1.00
32215;DHT22;18708;53.124;23.190;2023-03-01T08:04:55;1.90;1.00
32215;DHT22;18708;53.124;23.190;2023-03-01T08:07:20;1.90;1.00
32215;DHT22;18708;53.124;23.190;2023-03-01T08:09:46;1.80;1.00
32215;DHT22;18708;53.124;23.190;2023-03-01T08:12:12;1.80;1.00
32215;DHT22;18708;53.124;23.190;2023-03-01T08:14:37;1.90;1.00
32215;DHT22;18708;53.124;23.190;2023-03-01T08:17:03;1.90;1.00
32215;DHT22;18708;53.124;23.190;2023-03-01T08:19:29;2.00;1.00
32215;DHT22;18708;53.124;23.190;2023-03-01T08:21:55;1.90;1.00
32215;DHT22;18708;53.124;23.190;2023-03-01T08:24:23;2.00;1.00
32215;DHT22;18708;53.124;23.190;2023-03-01T08:26:49;2.00;1.00
32215;DHT22;18708;53.124;23.190;2023-03-01T08:29:15;2.10;1.00
32215;DHT22;18708;53.124;23.190;2023-03-01T08:31:41;2.10;1.00
32215;DHT22;18708;53.124;23.190;2023-03-01T08:34:09;2.10;1.00
32215;DHT22;18708;53.124;23.190;2023-03-01T08:36:37;2.20;1.00
32215;DHT22;18708;53.124;23.190;2023-03-01T08:39:04;2.20;1.00
32215;DHT22;18708;53.124;23.190;2023-03-01T08:41:30;2.20;1.00
32215;DHT22;18708;53.124;23.190;2023-03-01T08:43:56;2.20;1.00
32215;DHT22;18708;53.124;23.190;2023-03-01T08:46:33;2.30;1.00
32215;DHT22;18708;53.124;23.190;2023-03-01T08:48:59;2.30;1.00
32215;DHT22;18708;53.124;23.190;2023-03-01T08:51:25;2.30;1.00
32215;DHT22;18708;53.124;23.190;2023-03-01T08:53:52;2.40;1.00
32215;DHT22;18708;53.124;23.190;2023-03-01T08:56:18;2.40;1.00
32215;DHT22;18708;53.124;23.190;2023-03-01T08:58:46;2.40;1.00
32215;DHT22;18708;53.124;23.190;2023-03-01T09:01:16;2.40;1.00
32215;DHT22;18708;53.124;23.190;2023-03-01T09:03:43;2.50;1.00
32215;DHT22;18708;53.124;23.190;2023-03-01T09:06:09;2.50;1.00
32215;DHT22;18708;53.124;23.190;2023-03-01T09:08:40;2.50;1.00
32215;DHT22;18708;53.124;23.190;2023-03-01T09:11:09;2.60;1.00
32215;DHT22;18708;53.124;23.190;2023-03-01T09:13:36;2.60;1.00
32215;DHT22;18708;53.124;23.190;2023-03-01T09:16:03;2.70;1.00
32215;DHT22;18708;53.124;23.190;2023-03-01T09:18:29;2.70;1.00
32215;DHT22;18708;53.124;23.190;2023-03-01T09:23:36;2.70;1.00
32215;DHT22;18708;53.124;23.190;2023-03-01T09:26:05;2.80;1.00
32215;DHT22;18708;53.124;23.190;2023-03-01T09:28:31;2.80;1.00
32215;DHT22;18708;53.124;23.190;2023-03-01T09:31:00;2.80;1.00
32215;DHT22;18708;53.124;23.190;2023-03-01T09:33:28;2.90;1.00
32215;DHT22;18708;53.124;23.190;2023-03-01T09:36:04;3.00;1.00
32215;DHT22;18708;53.124;23.190;2023-03-01T09:38:30;3.00;99.90
32215;DHT22;18708;53.124;23.190;2023-03-01T09:40:56;3.00;99.90
32215;DHT22;18708;53.124;23.190;2023-03-01T09:43:35;3.10;99.90
32215;DHT22;18708;53.124;23.190;2023-03-01T09:46:09;3.20;99.90
32215;DHT22;18708;53.124;23.190;2023-03-01T09:48:55;3.10;99.90
32215;DHT22;18708;53.124;23.190;2023-03-01T09:51:33;3.20;99.90
32215;DHT22;18708;53.124;23.190;2023-03-01T09:54:02;3.10;99.90
32215;DHT22;18708;53.124;23.190;2023-03-01T09:56:41;3.20;99.90
32215;DHT22;18708;53.124;23.190;2023-03-01T10:02:18;3.20;93.20
32215;DHT22;18708;53.124;23.190;2023-03-01T10:09:42;3.30;1.00
32215;DHT22;18708;53.124;23.190;2023-03-01T10:12:12;3.40;1.00
32215;DHT22;18708;53.124;23.190;2023-03-01T10:17:35;3.60;1.00
32215;DHT22;18708;53.124;23.190;2023-03-01T10:20:42;3.60;1.00
32215;DHT22;18708;53.124;23.190;2023-03-01T10:23:09;3.50;1.00
32215;DHT22;18708;53.124;23.190;2023-03-01T10:31:20;3.60;1.00
32215;DHT22;18708;53.124;23.190;2023-03-01T10:33:48;3.70;1.00
32215;DHT22;18708;53.124;23.190;2023-03-01T10:36:16;3.70;1.00
32215;DHT22;18708;53.124;23.190;2023-03-01T10:38:56;3.90;1.00
32215;DHT22;18708;53.124;23.190;2023-03-01T10:41:25;3.90;99.90
32215;DHT22;18708;53.124;23.190;2023-03-01T10:43:56;4.00;99.90
32215;DHT22;18708;53.124;23.190;2023-03-01T10:46:27;4.00;99.90
32215;DHT22;18708;53.124;23.190;2023-03-01T10:49:13;3.90;99.90
32215;DHT22;18708;53.124;23.190;2023-03-01T10:51:40;3.80;99.90
32215;DHT22;18708;53.124;23.190;2023-03-01T10:54:26;3.80;99.90
32215;DHT22;18708;53.124;23.190;2023-03-01T10:56:59;3.90;99.90
32215;DHT22;18708;53.124;23.190;2023-03-01T10:59:34;4.00;1.00
32215;DHT22;18708;53.124;23.190;2023-03-01T11:02:31;4.00;99.90
32215;DHT22;18708;53.124;23.190;2023-03-01T11:07:26;4.00;1.00
32215;DHT22;18708;53.124;23.190;2023-03-01T11:09:52;4.00;1.00
32215;DHT22;18708;53.124;23.190;2023-03-01T11:12:19;4.10;99.90
32215;DHT22;18708;53.124;23.190;2023-03-01T11:14:47;4.10;99.90
32215;DHT22;18708;53.124;23.190;2023-03-01T11:17:19;4.10;99.90
32215;DHT22;18708;53.124;23.190;2023-03-01T11:22:56;4.20;99.90
32215;DHT22;18708;53.124;23.190;2023-03-01T11:25:26;4.10;99.90
32215;DHT22;18708;53.124;23.190;2023-03-01T11:27:54;4.10;1.00
32215;DHT22;18708;53.124;23.190;2023-03-01T11:30:24;4.10;99.90
32215;DHT22;18708;53.124;23.190;2023-03-01T11:35:44;4.20;99.90
32215;DHT22;18708;53.124;23.190;2023-03-01T11:38:38;4.20;99.90
32215;DHT22;18708;53.124;23.190;2023-03-01T11:41:16;4.20;99.90
32215;DHT22;18708;53.124;23.190;2023-03-01T11:44:00;4.30;99.90
32215;DHT22;18708;53.124;23.190;2023-03-01T11:46:49;4.20;99.90
32215;DHT22;18708;53.124;23.190;2023-03-01T12:06:25;4.20;1.00
32215;DHT22;18708;53.124;23.190;2023-03-01T12:14:54;4.30;1.00
32215;DHT22;18708;53.124;23.190;2023-03-01T12:20:21;4.20;1.00
32215;DHT22;18708;53.124;23.190;2023-03-01T12:26:09;4.20;1.00
32215;DHT22;18708;53.124;23.190;2023-03-01T12:45:48;4.80;1.00
32215;DHT22;18708;53.124;23.190;2023-03-01T12:48:19;4.90;1.00
32215;DHT22;18708;53.124;23.190;2023-03-01T12:50:52;4.90;1.00
32215;DHT22;18708;53.124;23.190;2023-03-01T12:53:40;4.90;1.00
32215;DHT22;18708;53.124;23.190;2023-03-01T12:56:14;4.90;1.00
32215;DHT22;18708;53.124;23.190;2023-03-01T12:58:55;5.10;1.00
32215;DHT22;18708;53.124;23.190;2023-03-01T13:01:32;5.00;99.90
32215;DHT22;18708;53.124;23.190;2023-03-01T13:06:58;5.00;99.90
32215;DHT22;18708;53.124;23.190;2023-03-01T13:09:37;5.00;99.90
32215;DHT22;18708;53.124;23.190;2023-03-01T13:17:50;5.00;99.90
32215;DHT22;18708;53.124;23.190;2023-03-01T13:20:18;5.00;1.00
32215;DHT22;18708;53.124;23.190;2023-03-01T13:22:46;4.90;99.90
32215;DHT22;18708;53.124;23.190;2023-03-01T13:25:18;4.80;99.90
32215;DHT22;18708;53.124;23.190;2023-03-01T13:27:46;4.70;1.00
32215;DHT22;18708;53.124;23.190;2023-03-01T13:35:54;4.60;1.00
32215;DHT22;18708;53.124;23.190;2023-03-01T13:41:07;4.40;1.00
32215;DHT22;18708;53.124;23.190;2023-03-01T13:43:36;4.40;1.00
32215;DHT22;18708;53.124;23.190;2023-03-01T13:46:23;4.30;1.00
32215;DHT22;18708;53.124;23.190;2023-03-01T13:48:55;4.20;1.00
32215;DHT22;18708;53.124;23.190;2023-03-01T13:51:25;4.10;1.00
32215;DHT22;18708;53.124;23.190;2023-03-01T13:53:52;4.20;1.00
32215;DHT22;18708;53.124;23.190;2023-03-01T13:56:27;4.30;1.00
32215;DHT22;18708;53.124;23.190;2023-03-01T14:01:59;4.30;1.00
32215;DHT22;18708;53.124;23.190;2023-03-01T14:04:28;4.00;1.00
32215;DHT22;18708;53.124;23.190;2023-03-01T14:07:31;3.80;99.90
32215;DHT22;18708;53.124;23.190;2023-03-01T14:10:03;3.70;99.90
32215;DHT22;18708;53.124;23.190;2023-03-01T14:15:16;3.90;99.90
32215;DHT22;18708;53.124;23.190;2023-03-01T14:18:04;4.00;99.90
32215;DHT22;18708;53.124;23.190;2023-03-01T14:20:39;4.00;21.20
32215;DHT22;18708;53.124;23.190;2023-03-01T14:23:18;3.90;94.30
32215;DHT22;18708;53.124;23.190;2023-03-01T14:25:51;4.00;99.90
32215;DHT22;18708;53.124;23.190;2023-03-01T14:30:46;3.80;99.90
32215;DHT22;18708;53.124;23.190;2023-03-01T14:33:24;3.90;99.90
32215;DHT22;18708;53.124;23.190;2023-03-01T14:35:55;4.00;99.90
32215;DHT22;18708;53.124;23.190;2023-03-01T14:41:02;3.80;99.90
32215;DHT22;18708;53.124;23.190;2023-03-01T14:43:29;3.80;99.90
32215;DHT22;18708;53.124;23.190;2023-03-01T14:45:56;3.90;99.90
32215;DHT22;18708;53.124;23.190;2023-03-01T14:48:22;3.90;99.90
32215;DHT22;18708;53.124;23.190;2023-03-01T14:50:48;3.90;99.90
32215;DHT22;18708;53.124;23.190;2023-03-01T14:53:24;3.70;99.90
32215;DHT22;18708;53.124;23.190;2023-03-01T14:55:53;3.40;1.00
32215;DHT22;18708;53.124;23.190;2023-03-01T14:58:23;3.30;1.00
32215;DHT22;18708;53.124;23.190;2023-03-01T15:00:56;3.40;1.00
32215;DHT22;18708;53.124;23.190;2023-03-01T15:03:27;3.40;1.00
32215;DHT22;18708;53.124;23.190;2023-03-01T15:05:56;3.40;1.00
32215;DHT22;18708;53.124;23.190;2023-03-01T15:08:25;3.40;1.00
32215;DHT22;18708;53.124;23.190;2023-03-01T15:11:01;3.40;1.00
32215;DHT22;18708;53.124;23.190;2023-03-01T15:13:33;3.30;1.00
32215;DHT22;18708;53.124;23.190;2023-03-01T15:18:32;3.30;1.00
32215;DHT22;18708;53.124;23.190;2023-03-01T15:21:09;3.20;1.00
32215;DHT22;18708;53.124;23.190;2023-03-01T15:23:37;3.10;1.00
32215;DHT22;18708;53.124;23.190;2023-03-01T15:26:03;3.10;1.00
32215;DHT22;18708;53.124;23.190;2023-03-01T15:28:31;3.00;1.00
32215;DHT22;18708;53.124;23.190;2023-03-01T15:31:03;2.90;1.00
32215;DHT22;18708;53.124;23.190;2023-03-01T15:33:32;2.80;95.70
32215;DHT22;18708;53.124;23.190;2023-03-01T15:36:03;2.80;99.90
32215;DHT22;18708;53.124;23.190;2023-03-01T15:38:57;2.60;1.00
32215;DHT22;18708;53.124;23.190;2023-03-01T15:41:32;2.40;1.00
32215;DHT22;18708;53.124;23.190;2023-03-01T15:44:16;2.50;1.00
32215;DHT22;18708;53.124;23.190;2023-03-01T15:46:44;2.50;1.00
32215;DHT22;18708;53.124;23.190;2023-03-01T15:51:45;2.50;1.00
32215;DHT22;18708;53.124;23.190;2023-03-01T15:54:18;2.40;1.00
32215;DHT22;18708;53.124;23.190;2023-03-01T15:56:45;2.30;1.00
32215;DHT22;18708;53.124;23.190;2023-03-01T15:59:12;2.30;1.00
32215;DHT22;18708;53.124;23.190;2023-03-01T16:01:41;2.20;1.00
32215;DHT22;18708;53.124;23.190;2023-03-01T16:04:13;2.10;1.00
32215;DHT22;18708;53.124;23.190;2023-03-01T16:06:51;2.00;1.00
32215;DHT22;18708;53.124;23.190;2023-03-01T16:09:25;1.80;1.00
32215;DHT22;18708;53.124;23.190;2023-03-01T16:11:51;1.70;1.00
32215;DHT22;18708;53.124;23.190;2023-03-01T16:14:17;1.70;1.00
32215;DHT22;18708;53.124;23.190;2023-03-01T16:16:44;1.80;1.00
32215;DHT22;18708;53.124;23.190;2023-03-01T16:19:10;1.90;1.00
32215;DHT22;18708;53.124;23.190;2023-03-01T16:21:37;2.00;1.00
32215;DHT22;18708;53.124;23.190;2023-03-01T16:24:03;2.10;1.00
32215;DHT22;18708;53.124;23.190;2023-03-01T16:26:29;2.00;1.00
32215;DHT22;18708;53.124;23.190;2023-03-01T16:28:56;2.10;1.00
32215;DHT22;18708;53.124;23.190;2023-03-01T16:31:22;2.10;1.00
32215;DHT22;18708;53.124;23.190;2023-03-01T16:33:49;2.00;1.00
32215;DHT22;18708;53.124;23.190;2023-03-01T16:36:18;1.90;1.00
32215;DHT22;18708;53.124;23.190;2023-03-01T16:38:44;1.70;1.00
32215;DHT22;18708;53.124;23.190;2023-03-01T16:41:12;1.80;1.00
32215;DHT22;18708;53.124;23.190;2023-03-01T16:43:39;1.80;1.00
32215;DHT22;18708;53.124;23.190;2023-03-01T16:46:38;1.70;1.00
32215;DHT22;18708;53.124;23.190;2023-03-01T16:49:06;1.80;1.00
32215;DHT22;18708;53.124;23.190;2023-03-01T16:51:32;1.70;1.00
32215;DHT22;18708;53.124;23.190;2023-03-01T16:54:00;1.70;1.00
32215;DHT22;18708;53.124;23.190;2023-03-01T16:56:26;1.60;1.00
32215;DHT22;18708;53.124;23.190;2023-03-01T16:58:51;1.60;1.00
32215;DHT22;18708;53.124;23.190;2023-03-01T17:01:19;1.60;1.00
32215;DHT22;18708;53.124;23.190;2023-03-01T17:03:47;1.60;1.00
32215;DHT22;18708;53.124;23.190;2023-03-01T17:06:16;1.70;1.00
32215;DHT22;18708;53.124;23.190;2023-03-01T17:08:42;1.80;1.00
32215;DHT22;18708;53.124;23.190;2023-03-01T17:11:14;1.80;1.00
32215;DHT22;18708;53.124;23.190;2023-03-01T17:13:40;1.80;1.00
32215;DHT22;18708;53.124;23.190;2023-03-01T17:16:08;1.70;1.00
32215;DHT22;18708;53.124;23.190;2023-03-01T17:18:35;1.70;1.00
32215;DHT22;18708;53.124;23.190;2023-03-01T17:21:01;1.70;1.00
32215;DHT22;18708;53.124;23.190;2023-03-01T17:23:28;1.60;1.00
32215;DHT22;18708;53.124;23.190;2023-03-01T17:25:54;1.50;1.00
32215;DHT22;18708;53.124;23.190;2023-03-01T17:28:22;1.50;1.00
32215;DHT22;18708;53.124;23.190;2023-03-01T17:30:48;1.50;3.00
32215;DHT22;18708;53.124;23.190;2023-03-01T17:33:14;1.50;13.40
32215;DHT22;18708;53.124;23.190;2023-03-01T17:35:39;1.50;19.70
32215;DHT22;18708;53.124;23.190;2023-03-01T17:38:06;1.50;14.90
32215;DHT22;18708;53.124;23.190;2023-03-01T17:40:32;1.40;12.10
32215;DHT22;18708;53.124;23.190;2023-03-01T17:43:00;1.40;20.70
32215;DHT22;18708;53.124;23.190;2023-03-01T17:45:26;1.40;34.50
32215;DHT22;18708;53.124;23.190;2023-03-01T17:47:51;1.30;31.50
32215;DHT22;18708;53.124;23.190;2023-03-01T17:50:17;1.20;55.50
32215;DHT22;18708;53.124;23.190;2023-03-01T17:52:43;1.30;91.60